createdAt,value
2023-11-07T00:01:42.242Z,31.90
2023-11-07T00:04:09.717Z,31.90
2023-11-07T00:06:36.928Z,32.10
2023-11-07T00:09:04.053Z,32.30
2023-11-07T00:11:30.994Z,32.40
2023-11-07T00:13:57.997Z,32.60
2023-11-07T00:16:24.910Z,32.40
2023-11-07T00:18:51.943Z,32.20
2023-11-07T00:21:18.914Z,32.30
2023-11-07T00:23:45.907Z,31.80
2023-11-07T00:26:12.866Z,32.00
2023-11-07T00:28:39.840Z,32.00
2023-11-07T00:31:06.931Z,32.10
2023-11-07T00:33:34.170Z,32.20
2023-11-07T00:36:01.314Z,32.20
2023-11-07T00:38:28.310Z,32.20
2023-11-07T00:40:55.301Z,32.40
2023-11-07T00:43:22.330Z,32.60
2023-11-07T00:45:49.294Z,32.70
2023-11-07T00:48:16.397Z,32.40
2023-11-07T00:50:43.602Z,32.60
2023-11-07T00:53:10.616Z,32.40
2023-11-07T00:55:37.586Z,32.20
2023-11-07T00:58:04.529Z,32.30
2023-11-07T01:00:31.413Z,32.30
2023-11-07T01:02:58.441Z,32.40
2023-11-07T01:05:25.564Z,32.30
2023-11-07T01:07:52.647Z,32.30
2023-11-07T01:10:19.739Z,32.30
2023-11-07T01:12:47.041Z,32.60
2023-11-07T01:15:14.264Z,32.70
2023-11-07T01:17:41.368Z,32.90
2023-11-07T01:20:08.974Z,32.70
2023-11-07T01:22:37.395Z,32.70
2023-11-07T01:25:04.665Z,32.60
2023-11-07T01:27:32.836Z,32.30
2023-11-07T01:29:59.935Z,32.40
2023-11-07T01:32:26.947Z,32.20
2023-11-07T01:34:53.925Z,32.90
2023-11-07T01:37:20.888Z,33.10
2023-11-07T01:39:47.911Z,33.50
2023-11-07T01:42:14.817Z,33.70
2023-11-07T01:44:50.590Z,33.70
2023-11-07T01:47:19.014Z,33.80
2023-11-07T01:49:47.715Z,33.90
2023-11-07T01:52:18.053Z,34.20
2023-11-07T01:54:46.445Z,34.70
2023-11-07T01:57:14.125Z,33.70
2023-11-07T01:59:41.686Z,33.60
2023-11-07T02:02:09.298Z,33.80
2023-11-07T02:04:36.585Z,34.00
2023-11-07T02:07:03.646Z,34.00
2023-11-07T02:09:31.790Z,33.80
2023-11-07T02:11:58.709Z,33.80
2023-11-07T02:14:32.945Z,33.70
2023-11-07T02:16:59.890Z,33.90
2023-11-07T02:19:26.833Z,33.90
2023-11-07T02:21:58.904Z,33.90
2023-11-07T02:24:26.103Z,34.20
2023-11-07T02:26:56.744Z,34.50
2023-11-07T02:29:23.946Z,34.20
2023-11-07T02:31:51.062Z,34.30
2023-11-07T02:34:18.931Z,34.60
2023-11-07T02:36:45.961Z,34.50
2023-11-07T02:39:12.926Z,34.50
2023-11-07T02:41:42.991Z,34.50
2023-11-07T02:44:09.970Z,34.40
2023-11-07T02:46:36.896Z,34.70
2023-11-07T02:49:03.979Z,34.80
2023-11-07T02:51:31.201Z,34.70
2023-11-07T02:53:58.259Z,34.50
2023-11-07T02:56:29.009Z,34.40
2023-11-07T02:58:56.612Z,34.50
2023-11-07T03:01:23.888Z,34.60
2023-11-07T03:03:51.290Z,34.70
2023-11-07T03:06:19.507Z,34.60
2023-11-07T03:08:46.598Z,34.60
2023-11-07T03:11:13.633Z,34.70
2023-11-07T03:13:40.582Z,34.70
2023-11-07T03:16:07.949Z,34.60
2023-11-07T03:18:35.150Z,34.10
2023-11-07T03:21:02.429Z,34.00
2023-11-07T03:23:29.320Z,33.80
2023-11-07T03:25:56.341Z,34.40
2023-11-07T03:28:23.281Z,34.60
2023-11-07T03:30:50.230Z,34.80
2023-11-07T03:33:17.534Z,34.10
2023-11-07T03:35:44.837Z,34.20
2023-11-07T03:38:11.768Z,34.30
2023-11-07T03:40:38.740Z,34.20
2023-11-07T03:43:06.540Z,34.60
2023-11-07T03:45:33.515Z,35.10
2023-11-07T03:48:00.677Z,35.40
2023-11-07T03:50:27.753Z,35.70
2023-11-07T03:52:54.698Z,35.50
2023-11-07T03:55:21.629Z,35.20
2023-11-07T03:57:48.652Z,35.10
2023-11-07T04:00:15.963Z,34.90
2023-11-07T04:02:43.030Z,35.40
2023-11-07T04:05:10.030Z,35.50
2023-11-07T04:07:36.955Z,35.50
2023-11-07T04:10:04.167Z,35.50
2023-11-07T04:12:31.122Z,35.70
2023-11-07T04:14:58.050Z,36.00
2023-11-07T04:17:25.145Z,35.60
2023-11-07T04:19:52.071Z,34.80
2023-11-07T04:22:18.968Z,33.70
2023-11-07T04:24:46.012Z,34.60
2023-11-07T04:27:13.027Z,34.10
2023-11-07T04:29:40.016Z,33.50
2023-11-07T04:32:07.317Z,34.00
2023-11-07T04:34:34.238Z,34.30
2023-11-07T04:37:01.423Z,34.20
2023-11-07T04:39:28.411Z,34.00
2023-11-07T04:41:55.384Z,34.10
2023-11-07T04:44:22.466Z,34.40
2023-11-07T04:46:49.448Z,34.50
2023-11-07T04:49:16.541Z,34.40
2023-11-07T04:51:43.627Z,34.30
2023-11-07T04:54:10.674Z,34.00
2023-11-07T04:56:37.689Z,34.00
2023-11-07T04:59:04.703Z,34.00
2023-11-07T05:01:31.594Z,33.90
2023-11-07T05:03:58.727Z,34.20
2023-11-07T05:06:25.841Z,34.40
2023-11-07T05:08:52.884Z,34.20
2023-11-07T05:11:19.919Z,34.20
2023-11-07T05:13:46.880Z,33.80
2023-11-07T05:16:14.088Z,33.90
2023-11-07T05:18:41.133Z,33.80
2023-11-07T05:21:08.379Z,33.50
2023-11-07T05:23:35.340Z,33.40
2023-11-07T05:26:02.344Z,33.90
2023-11-07T05:28:29.308Z,33.70
2023-11-07T05:30:56.231Z,33.80
2023-11-07T05:33:23.311Z,33.60
2023-11-07T05:35:50.371Z,34.10
2023-11-07T05:38:17.382Z,34.10
2023-11-07T05:40:44.439Z,33.90
2023-11-07T05:43:11.368Z,34.00
2023-11-07T05:45:38.347Z,34.20
2023-11-07T05:48:05.897Z,34.40
2023-11-07T05:50:32.943Z,33.50
2023-11-07T05:53:01.691Z,33.60
2023-11-07T05:55:29.645Z,33.60
2023-11-07T05:57:56.567Z,33.60
2023-11-07T06:00:23.728Z,33.50
2023-11-07T06:02:50.903Z,33.30
2023-11-07T06:05:18.140Z,33.40
2023-11-07T06:07:45.042Z,33.30
2023-11-07T06:10:11.977Z,33.20
2023-11-07T06:12:38.916Z,33.10
2023-11-07T06:15:06.554Z,33.10
2023-11-07T06:17:33.551Z,33.30
2023-11-07T06:20:00.574Z,33.30
2023-11-07T06:22:27.528Z,33.20
2023-11-07T06:24:54.496Z,33.40
2023-11-07T06:27:21.504Z,33.50
2023-11-07T06:29:48.492Z,33.90
2023-11-07T06:32:15.553Z,34.20
2023-11-07T06:34:42.662Z,33.70
2023-11-07T06:37:09.691Z,33.70
2023-11-07T06:39:36.924Z,33.90
2023-11-07T06:42:04.112Z,34.40
2023-11-07T06:44:31.119Z,34.70
2023-11-07T06:46:58.110Z,35.00
2023-11-07T06:49:25.296Z,34.90
2023-11-07T06:51:52.920Z,34.80
2023-11-07T06:54:19.913Z,34.60
2023-11-07T06:56:48.086Z,34.40
2023-11-07T06:59:15.349Z,34.30
2023-11-07T07:01:45.418Z,34.20
2023-11-07T07:04:12.746Z,34.20
2023-11-07T07:06:39.800Z,34.00
2023-11-07T07:09:06.939Z,34.20
2023-11-07T07:11:33.912Z,34.30
2023-11-07T07:14:01.022Z,34.40
2023-11-07T07:16:27.995Z,33.90
2023-11-07T07:18:55.033Z,33.60
2023-11-07T07:21:22.005Z,34.10
2023-11-07T07:23:49.154Z,35.10
2023-11-07T07:26:16.432Z,34.50
2023-11-07T07:28:43.506Z,34.30
2023-11-07T07:31:10.439Z,34.40
2023-11-07T07:33:39.004Z,34.70
2023-11-07T07:36:06.640Z,35.00
2023-11-07T07:38:33.795Z,35.20
2023-11-07T07:41:00.687Z,35.90
2023-11-07T07:43:27.580Z,35.30
2023-11-07T07:45:55.143Z,35.30
2023-11-07T07:48:22.698Z,35.30
2023-11-07T07:50:50.137Z,35.50
2023-11-07T07:53:17.246Z,35.20
2023-11-07T07:55:45.541Z,34.70
2023-11-07T07:58:13.167Z,34.90
2023-11-07T08:00:40.126Z,35.50
2023-11-07T08:03:07.219Z,35.60
2023-11-07T08:05:35.091Z,35.40
2023-11-07T08:08:02.039Z,34.90
2023-11-07T08:10:28.977Z,34.70
2023-11-07T08:12:55.862Z,34.80
2023-11-07T08:15:23.071Z,34.60
2023-11-07T08:17:53.143Z,34.50
2023-11-07T08:20:20.170Z,34.00
2023-11-07T08:22:48.459Z,34.00
2023-11-07T08:25:16.711Z,33.90
2023-11-07T08:27:44.362Z,34.10
2023-11-07T08:30:13.200Z,33.50
2023-11-07T08:32:44.057Z,34.00
2023-11-07T08:35:15.633Z,35.00
2023-11-07T08:37:43.255Z,34.90
2023-11-07T08:40:10.494Z,35.00
2023-11-07T08:42:37.584Z,35.10
2023-11-07T08:45:05.033Z,35.20
2023-11-07T08:47:32.181Z,34.50
2023-11-07T08:49:59.216Z,33.30
2023-11-07T08:52:26.216Z,33.10
2023-11-07T08:54:53.395Z,32.10
2023-11-07T08:57:20.475Z,33.20
2023-11-07T08:59:47.421Z,33.20
2023-11-07T09:02:14.705Z,32.80
2023-11-07T09:04:41.680Z,33.40
2023-11-07T09:07:08.657Z,33.40
2023-11-07T09:09:35.607Z,33.30
2023-11-07T09:12:02.695Z,32.50
2023-11-07T09:14:29.916Z,32.10
2023-11-07T09:16:58.784Z,32.00
2023-11-07T09:19:25.770Z,32.80
2023-11-07T09:21:52.742Z,32.80
2023-11-07T09:24:19.803Z,32.90
2023-11-07T09:26:46.730Z,32.70
2023-11-07T09:29:13.744Z,32.80
2023-11-07T09:31:40.921Z,31.00
2023-11-07T09:34:07.944Z,31.10
2023-11-07T09:36:35.069Z,30.90
2023-11-07T09:39:02.013Z,30.00
2023-11-07T09:41:29.081Z,30.90
2023-11-07T09:43:56.833Z,30.20
2023-11-07T09:46:25.895Z,29.50
2023-11-07T09:48:53.175Z,29.60
2023-11-07T09:51:22.717Z,30.00
2023-11-07T09:53:51.125Z,29.60
2023-11-07T09:56:18.842Z,29.50
2023-11-07T09:58:51.325Z,29.50
2023-11-07T10:01:19.916Z,29.10
2023-11-07T10:03:47.877Z,29.00
2023-11-07T10:06:14.986Z,28.70
2023-11-07T10:08:42.012Z,28.40
2023-11-07T10:11:14.022Z,28.50
2023-11-07T10:14:03.276Z,28.30
2023-11-07T10:16:41.250Z,27.90
2023-11-07T10:19:12.935Z,28.20
2023-11-07T10:21:40.016Z,28.30
2023-11-07T10:24:08.997Z,28.10
2023-11-07T10:26:36.263Z,28.00
2023-11-07T10:29:06.992Z,28.10
2023-11-07T10:31:33.930Z,27.60
2023-11-07T10:34:19.519Z,27.50
2023-11-07T10:36:46.419Z,28.20
2023-11-07T10:39:17.408Z,27.40
2023-11-07T10:41:45.351Z,27.60
2023-11-07T10:44:22.871Z,27.00
2023-11-07T10:46:50.455Z,27.20
2023-11-07T10:49:18.622Z,26.80
2023-11-07T10:51:47.868Z,26.70
2023-11-07T10:54:15.587Z,26.50
2023-11-07T10:56:43.917Z,25.60
2023-11-07T10:59:21.857Z,25.60
2023-11-07T11:01:51.056Z,25.20
2023-11-07T11:04:24.268Z,24.60
2023-11-07T11:06:53.695Z,24.20
2023-11-07T11:09:24.474Z,24.20
2023-11-07T11:11:52.571Z,24.40
2023-11-07T11:14:20.435Z,24.30
2023-11-07T11:16:51.843Z,24.10
2023-11-07T11:19:37.707Z,24.20
2023-11-07T11:22:40.523Z,24.30
2023-11-07T11:25:32.481Z,24.10
2023-11-07T11:28:03.904Z,23.80
2023-11-07T11:30:35.394Z,23.70
2023-11-07T11:33:10.457Z,23.40
2023-11-07T11:35:38.904Z,23.30
2023-11-07T11:38:14.292Z,23.70
2023-11-07T11:41:00.951Z,24.40
2023-11-07T11:43:33.272Z,24.30
2023-11-07T11:46:20.281Z,24.10
2023-11-07T11:48:50.263Z,24.70
2023-11-07T11:51:32.533Z,24.90
2023-11-07T11:53:59.851Z,25.60
2023-11-07T11:56:27.111Z,25.80
2023-11-07T11:59:10.005Z,26.20
2023-11-07T12:01:51.609Z,26.80
2023-11-07T12:04:27.572Z,26.70
2023-11-07T12:07:12.639Z,26.80
2023-11-07T12:09:40.448Z,27.00
2023-11-07T12:12:08.626Z,27.70
2023-11-07T12:14:49.991Z,28.40
2023-11-07T12:17:16.937Z,28.60
2023-11-07T12:19:44.075Z,29.20
2023-11-07T12:22:11.330Z,29.00
2023-11-07T12:24:39.022Z,29.10
2023-11-07T12:27:06.082Z,29.20
2023-11-07T12:29:35.317Z,29.20
2023-11-07T12:32:03.334Z,29.50
2023-11-07T12:34:39.087Z,29.70
2023-11-07T12:37:11.906Z,30.20
2023-11-07T12:39:39.349Z,30.30
2023-11-07T12:42:06.919Z,30.00
2023-11-07T12:44:33.984Z,30.00
2023-11-07T12:47:01.123Z,29.60
2023-11-07T12:49:28.189Z,29.20
2023-11-07T12:51:57.440Z,28.90
2023-11-07T12:54:27.825Z,28.70
2023-11-07T12:56:54.868Z,28.90
2023-11-07T12:59:22.040Z,29.20
2023-11-07T13:01:49.134Z,29.10
2023-11-07T13:04:17.743Z,29.10
2023-11-07T13:06:51.911Z,29.10
2023-11-07T13:09:19.061Z,29.20
2023-11-07T13:11:46.035Z,29.30
2023-11-07T13:14:13.349Z,29.20
2023-11-07T13:16:40.287Z,29.40
2023-11-07T13:19:07.309Z,29.30
2023-11-07T13:21:34.449Z,29.30
2023-11-07T13:24:01.501Z,29.20
2023-11-07T13:26:28.524Z,28.70
2023-11-07T13:28:55.497Z,29.00
2023-11-07T13:31:22.735Z,29.20
2023-11-07T13:33:49.884Z,29.00
2023-11-07T13:36:17.423Z,29.20
2023-11-07T13:38:44.693Z,29.40
2023-11-07T13:41:11.646Z,29.40
2023-11-07T13:43:38.603Z,29.10
2023-11-07T13:46:05.698Z,29.00
2023-11-07T13:48:32.711Z,29.10
2023-11-07T13:51:00.021Z,28.70
2023-11-07T13:53:27.095Z,28.70
2023-11-07T13:55:54.038Z,28.60
2023-11-07T13:58:21.170Z,28.70
2023-11-07T14:00:48.096Z,28.70
2023-11-07T14:03:15.139Z,28.80
2023-11-07T14:05:42.230Z,29.10
2023-11-07T14:08:09.264Z,28.90
2023-11-07T14:10:36.294Z,28.80
2023-11-07T14:13:03.247Z,29.00
2023-11-07T14:15:30.251Z,28.70
2023-11-07T14:17:57.249Z,29.10
2023-11-07T14:20:24.293Z,28.40
2023-11-07T14:22:52.031Z,28.10
2023-11-07T14:25:18.926Z,28.20
2023-11-07T14:27:45.955Z,28.20
2023-11-07T14:30:27.130Z,28.60
2023-11-07T14:33:00.221Z,28.90
2023-11-07T14:35:27.255Z,28.50
2023-11-07T14:37:54.197Z,28.70
2023-11-07T14:40:21.247Z,28.80
2023-11-07T14:42:48.291Z,28.80
2023-11-07T14:45:15.389Z,29.10
2023-11-07T14:47:46.451Z,28.80
2023-11-07T14:50:14.594Z,28.90
2023-11-07T14:52:42.127Z,28.80
2023-11-07T14:55:10.395Z,29.00
2023-11-07T14:57:38.472Z,28.70
2023-11-07T15:00:06.024Z,28.60
2023-11-07T15:02:33.028Z,28.50
2023-11-07T15:05:00.030Z,28.30
2023-11-07T15:07:26.990Z,28.50
2023-11-07T15:09:54.025Z,28.70
2023-11-07T15:12:20.982Z,28.50
2023-11-07T15:14:48.430Z,28.60
2023-11-07T15:17:15.526Z,28.40
2023-11-07T15:19:42.438Z,28.40
2023-11-07T15:22:09.438Z,28.20
2023-11-07T15:24:36.371Z,28.20
2023-11-07T15:27:03.344Z,27.90
2023-11-07T15:29:30.428Z,27.80
2023-11-07T15:31:57.344Z,27.70
2023-11-07T15:34:24.384Z,27.70
2023-11-07T15:36:51.456Z,27.80
2023-11-07T15:39:18.777Z,27.70
2023-11-07T15:41:45.742Z,27.50
2023-11-07T15:44:12.752Z,27.60
2023-11-07T15:46:40.633Z,27.50
2023-11-07T15:49:08.163Z,27.50
2023-11-07T15:51:35.259Z,27.40
2023-11-07T15:54:02.320Z,27.40
2023-11-07T15:56:29.324Z,27.40
2023-11-07T15:58:56.253Z,27.30
2023-11-07T16:01:26.849Z,27.40
2023-11-07T16:03:54.795Z,27.30
2023-11-07T16:06:22.386Z,27.40
2023-11-07T16:08:49.383Z,27.40
2023-11-07T16:11:16.545Z,27.60
2023-11-07T16:13:43.457Z,27.50
2023-11-07T16:16:11.590Z,27.40
2023-11-07T16:18:39.946Z,27.40
2023-11-07T16:21:07.012Z,27.50
2023-11-07T16:23:34.187Z,27.50
2023-11-07T16:26:01.433Z,27.60
2023-11-07T16:28:29.239Z,27.50
2023-11-07T16:30:56.203Z,27.80
2023-11-07T16:33:23.687Z,27.90
2023-11-07T16:35:50.618Z,27.80
2023-11-07T16:38:17.560Z,27.70
2023-11-07T16:40:44.602Z,27.80
2023-11-07T16:43:11.528Z,27.60
2023-11-07T16:45:38.571Z,27.60
2023-11-07T16:48:05.918Z,27.70
2023-11-07T16:50:33.015Z,27.80
2023-11-07T16:52:59.966Z,27.60
2023-11-07T16:55:26.871Z,27.80
2023-11-07T16:57:53.798Z,27.80
2023-11-07T17:00:20.855Z,27.80
2023-11-07T17:02:48.131Z,27.90
2023-11-07T17:05:15.407Z,27.80
2023-11-07T17:07:42.527Z,28.30
2023-11-07T17:10:09.995Z,28.80
2023-11-07T17:12:37.948Z,29.10
2023-11-07T17:15:08.438Z,29.40
2023-11-07T17:17:35.771Z,29.30
2023-11-07T17:20:02.743Z,29.90
2023-11-07T17:22:29.640Z,29.70
2023-11-07T17:24:56.685Z,29.80
2023-11-07T17:27:23.724Z,29.70
2023-11-07T17:29:50.735Z,29.70
2023-11-07T17:32:17.687Z,29.60
2023-11-07T17:34:44.627Z,29.40
2023-11-07T17:37:11.601Z,29.40
2023-11-07T17:39:38.578Z,29.20
2023-11-07T17:42:05.833Z,29.20
2023-11-07T17:44:32.859Z,29.10
2023-11-07T17:46:59.767Z,29.40
2023-11-07T17:49:26.729Z,29.20
2023-11-07T17:51:53.681Z,29.10
2023-11-07T17:54:20.768Z,28.70
2023-11-07T17:56:47.796Z,29.10
2023-11-07T17:59:14.744Z,29.10
2023-11-07T18:01:41.670Z,29.10
2023-11-07T18:04:08.740Z,29.10
2023-11-07T18:06:35.860Z,29.10
2023-11-07T18:09:02.991Z,28.80
2023-11-07T18:11:29.999Z,28.60
2023-11-07T18:13:56.947Z,28.70
2023-11-07T18:16:23.972Z,28.80
2023-11-07T18:18:58.189Z,28.90
2023-11-07T18:21:28.018Z,29.00
2023-11-07T18:23:56.020Z,28.60
2023-11-07T18:26:23.434Z,28.70
2023-11-07T18:28:51.392Z,28.60
2023-11-07T18:31:18.664Z,28.70
2023-11-07T18:33:45.904Z,29.00
2023-11-07T18:36:13.107Z,28.90
2023-11-07T18:38:40.554Z,28.60
2023-11-07T18:41:07.551Z,28.60
2023-11-07T18:43:34.677Z,28.60
2023-11-07T18:46:01.634Z,30.20
2023-11-07T18:48:28.722Z,31.30
2023-11-07T18:50:55.761Z,32.30
2023-11-07T18:53:27.936Z,32.30
2023-11-07T18:56:00.562Z,32.60
2023-11-07T18:58:27.494Z,33.10
2023-11-07T19:00:54.452Z,33.10
2023-11-07T19:03:21.445Z,32.80
2023-11-07T19:05:48.456Z,32.40
2023-11-07T19:08:15.365Z,32.60
2023-11-07T19:10:42.401Z,32.30
2023-11-07T19:13:09.389Z,32.10
2023-11-07T19:15:36.380Z,32.30
2023-11-07T19:18:03.540Z,32.30
2023-11-07T19:20:30.536Z,32.10
2023-11-07T19:22:57.524Z,32.10
2023-11-07T19:25:24.484Z,32.00
2023-11-07T19:27:51.512Z,32.00
2023-11-07T19:30:18.539Z,32.60
2023-11-07T19:32:45.464Z,33.30
2023-11-07T19:35:12.498Z,33.40
2023-11-07T19:37:39.590Z,33.40
2023-11-07T19:40:07.492Z,33.90
2023-11-07T19:42:35.331Z,33.50
2023-11-07T19:45:06.373Z,34.00
2023-11-07T19:47:33.576Z,34.40
2023-11-07T19:50:00.648Z,34.90
2023-11-07T19:52:27.592Z,35.10
2023-11-07T19:54:54.531Z,35.10
2023-11-07T19:57:21.552Z,34.60
2023-11-07T19:59:48.620Z,34.40
2023-11-07T20:02:15.563Z,33.90
2023-11-07T20:04:42.518Z,33.10
2023-11-07T20:07:09.491Z,32.90
2023-11-07T20:09:36.436Z,32.90
2023-11-07T20:12:03.461Z,32.40
2023-11-07T20:14:30.684Z,32.30
2023-11-07T20:16:57.630Z,32.10
2023-11-07T20:19:24.715Z,31.90
2023-11-07T20:21:51.887Z,31.90
2023-11-07T20:24:18.854Z,32.20
2023-11-07T20:26:45.846Z,32.00
2023-11-07T20:29:12.753Z,31.60
2023-11-07T20:31:39.709Z,31.80
2023-11-07T20:34:06.825Z,31.50
2023-11-07T20:36:33.927Z,31.50
2023-11-07T20:39:01.019Z,31.50
2023-11-07T20:41:27.964Z,31.30
2023-11-07T20:43:54.916Z,31.00
2023-11-07T20:46:30.881Z,31.80
2023-11-07T20:49:01.562Z,31.20
2023-11-07T20:51:28.706Z,31.20
2023-11-07T20:53:55.710Z,31.00
2023-11-07T20:56:22.672Z,32.10
2023-11-07T20:58:49.599Z,31.30
2023-11-07T21:01:16.632Z,31.30
2023-11-07T21:03:43.748Z,31.30
2023-11-07T21:06:10.794Z,31.40
2023-11-07T21:08:37.762Z,31.20
2023-11-07T21:11:05.066Z,31.60
2023-11-07T21:13:31.977Z,31.70
2023-11-07T21:15:58.926Z,31.60
2023-11-07T21:18:25.863Z,31.30
2023-11-07T21:20:52.813Z,31.30
2023-11-07T21:23:19.774Z,31.40
2023-11-07T21:25:46.763Z,31.40
2023-11-07T21:28:13.734Z,31.10
2023-11-07T21:30:40.688Z,31.60
2023-11-07T21:33:07.810Z,31.80
2023-11-07T21:35:34.792Z,32.00
2023-11-07T21:38:01.694Z,31.90
2023-11-07T21:40:28.624Z,32.20
2023-11-07T21:42:55.520Z,32.20
2023-11-07T21:45:22.507Z,32.30
2023-11-07T21:47:49.521Z,32.10
2023-11-07T21:50:16.544Z,32.10
2023-11-07T21:52:43.520Z,32.00
2023-11-07T21:55:10.467Z,32.10
2023-11-07T21:57:37.475Z,32.40
2023-11-07T22:00:05.537Z,32.30
2023-11-07T22:02:32.557Z,32.70
2023-11-07T22:04:59.624Z,33.10
2023-11-07T22:07:27.816Z,33.20
2023-11-07T22:09:54.866Z,33.60
2023-11-07T22:12:21.962Z,33.50
2023-11-07T22:14:48.873Z,33.00
2023-11-07T22:17:15.829Z,32.60
2023-11-07T22:19:42.712Z,32.70
2023-11-07T22:22:09.835Z,32.60
2023-11-07T22:24:36.798Z,32.80
2023-11-07T22:27:03.972Z,32.60
2023-11-07T22:29:30.967Z,32.90
2023-11-07T22:31:57.948Z,33.30
2023-11-07T22:34:25.024Z,33.20
2023-11-07T22:36:52.036Z,32.90
2023-11-07T22:39:18.986Z,33.30
2023-11-07T22:41:49.768Z,32.90
2023-11-07T22:44:16.782Z,32.70
2023-11-07T22:46:43.741Z,32.60
2023-11-07T22:49:10.779Z,32.20
2023-11-07T22:51:37.808Z,32.00
2023-11-07T22:54:04.882Z,31.90
2023-11-07T22:56:32.834Z,31.80
2023-11-07T22:58:59.756Z,31.40
2023-11-07T23:01:26.681Z,31.40
2023-11-07T23:03:53.672Z,31.40
2023-11-07T23:06:20.793Z,31.60
2023-11-07T23:08:47.830Z,31.80
2023-11-07T23:11:14.741Z,31.40
2023-11-07T23:13:41.724Z,32.00
2023-11-07T23:16:08.692Z,31.80
2023-11-07T23:18:35.743Z,31.90
2023-11-07T23:21:02.710Z,31.80
2023-11-07T23:23:29.686Z,32.10
2023-11-07T23:25:56.637Z,32.00
2023-11-07T23:28:23.745Z,32.10
2023-11-07T23:30:50.708Z,32.30
2023-11-07T23:33:17.971Z,32.30
2023-11-07T23:35:45.248Z,32.90
2023-11-07T23:38:13.150Z,33.10
2023-11-07T23:40:40.169Z,33.10
2023-11-07T23:43:07.249Z,33.10
2023-11-07T23:45:34.226Z,33.10
2023-11-07T23:48:01.252Z,33.00
2023-11-07T23:50:28.242Z,33.30
2023-11-07T23:52:55.167Z,33.50
2023-11-07T23:55:22.327Z,33.50
2023-11-07T23:57:49.340Z,33.50
